KROC/ROC METAR and TAF weather

Enter ICAO airport designator
Station Type Date Time Source
KROC METAR 2019/04/25 17:54 UTC NOAA

KROC 251754Z 04010KT 10SM FEW110 SCT160 BKN250 16/04 A2988 RMK AO2 SLP123 T01610044 10172 20056 58015


Station Type Date Time Source
KROC Decoded METAR 2019/04/25 17:54 UTC NOAA

GREATER ROCHESTER INTERNATIONAL , NY, United States (KROC) 43-07N 077-41W 178M
Apr 25, 2019 - 01:54 PM EDT / 2019.04.25 1754 UTC
Wind: from the NE (040 degrees) at 12 MPH (10 KT):0
Visibility: 10 mile(s):0
Sky conditions: mostly cloudy
Temperature: 61.0 F (16.1 C)
Dew Point: 39.9 F (4.4 C)
Relative Humidity: 45%
Pressure (altimeter): 29.88 in. Hg (1011 hPa)
Pressure tendency: 0.04 inches (1.5 hPa) lower than three hours ago
ob: KROC 251754Z 04010KT 10SM FEW110 SCT160 BKN250 16/04 A2988 RMK AO2 SLP123 T01610044 10172 20056 58015
cycle: 18

Station Type Date Time Source
KROC TAF 2019/04/25 18:39 UTC NOAA

TAF KROC 251736Z 2518/2618 06004KT P6SM SCT090
FM260200 10005KT P6SM BKN060
FM260500 14005KT P6SM -RA OVC035
FM261100 15012KT 4SM -RA OVC012
FM261400 15013G19KT 5SM -RA OVC035

Example: see airport list